This is the latest recevied weather packets stored in our database for station/object DO7VLR-5. If no packets are shown the sender has not sent any weather packets the latest 10 day(s).
| Time | Temp. | Humidity | Pressure | Rain* | Wind** | Luminosity | Snow |
|---|---|---|---|---|---|---|---|
| 1777554016 | 18.33° C | 25% | 1024.5 hPa | 0 mm | - | - | - |
| 1777552216 | 17.22° C | 27% | 1024.6 hPa | 0 mm | - | - | - |
| 1777550416 | 16.67° C | 28% | 1024.6 hPa | 0 mm | - | - | - |
| 1777548616 | 16.67° C | 29% | 1025 hPa | 0 mm | - | - | - |
| 1777546816 | 15.56° C | 30% | 1025.3 hPa | 0 mm | - | - | - |
| 1777545016 | 15.56° C | 30% | 1025.4 hPa | 0 mm | - | - | - |
| 1777543216 | 15° C | 33% | 1025.4 hPa | 0 mm | - | - | - |
| 1777541416 | 13.89° C | 34% | 1025.4 hPa | 0 mm | - | - | - |
| 1777539616 | 12.78° C | 36% | 1025.7 hPa | 0 mm | - | - | - |
| 1777537816 | 11.67° C | 38% | 1025.7 hPa | 0 mm | - | - | - |
| 1777536017 | 10.56° C | 40% | 1025.7 hPa | 0 mm | - | - | - |
| 1777534216 | 10° C | 40% | 1025.6 hPa | 0 mm | - | - | - |
| 1777532415 | 8.89° C | 42% | 1025.7 hPa | 0 mm | - | - | - |
| 1777530616 | 8.89° C | 42% | 1025.5 hPa | 0 mm | - | - | - |
| 1777528815 | 8.33° C | 42% | 1025.6 hPa | 0 mm | - | - | - |
| 1777527015 | 7.78° C | 45% | 1025.5 hPa | 0 mm | - | - | - |
| 1777525218 | 6.67° C | 47% | 1025.2 hPa | 0 mm | - | - | - |
| 1777523417 | 6.67° C | 47% | 1025.2 hPa | 0 mm | - | - | - |
| 1777521617 | 7.22° C | 47% | 1024.9 hPa | 0 mm | - | - | - |
| 1777519817 | 7.22° C | 47% | 1024.7 hPa | 0 mm | - | - | - |
| 1777518017 | 7.78° C | 45% | 1025 hPa | 0 mm | - | - | - |
| 1777516217 | 7.78° C | 46% | 1024.9 hPa | 0 mm | - | - | - |
| 1777514417 | 8.33° C | 44% | 1025 hPa | 0 mm | - | - | - |
| 1777512617 | 8.89° C | 43% | 1024.8 hPa | 0 mm | - | - | - |
| 1777510817 | 9.44° C | 43% | 1024.9 hPa | 0 mm | - | - | - |
* Rain latest hour (hover to see other rain measurements)
** Current wind speed in m/s (hover to see current wind gust speed)